ソウル/仁川 の空港の天気 - METARとTAF

仁川国際空港 ( RKSI / ICN ) - 韓国 仁川広域市 (ソウル特別市近郊)
飛行場実況気象(Metar)
観測時間08/23 01:30 KST (08/22 16:30 UTC)
風向・風速西北西 3m/s
視程10km以上
天気現象
なし
気温25℃
湿度65%
気圧1007hPa
METARRKSI 221630Z 29005KT CAVOK 25/18 Q1007 NOSIG
過去の天気等 Google飛行場航空写真 Wunderground天気予報

過去48時間のMETAR

飛行場予報(TAF)
発表時間: 8/22 20:00 KST (8/22 11:00 UTC)
予報対象時間: 22日21時 KST ~ 24日3時 KST
風向・風速西北西 5m/s
視程7000m
全天の4割程度の雲 雲底高度 1220m
全天の8割程度の雲 雲底高度 5490m
23日0時 KST ~ 23日1時 KST に徐々に
風向・風速北 4m/s
23日11時 KST ~ 23日12時 KST に徐々に
風向・風速西北西 5m/s
23日15時 KST ~ 23日16時 KST に徐々に
風向・風速北北西 8m/s 瞬間風速 13m/s
23日22時 KST ~ 23日23時 KST に徐々に
風向・風速北北西 5m/s
TAF RKSI 221100Z 2212/2318 30010KT 7000 SCT040 BKN180 TN22/2221Z TX28/2305Z
BECMG 2215/2216 36008KT
BECMG 2302/2303 29010KT
BECMG 2306/2307 33015G25KT
BECMG 2313/2314 33010KT